KGFA/GFA METAR and TAF weather

Enter ICAO airport designator
Station Type Date Time Source
KGFA METAR 2020/11/27 13:58 UTC NOAA

KGFA 271358Z AUTO 23019KT 10SM CLR 03/M05 A3006 RMK AO2 SLP208 T00261055 $


Station Type Date Time Source
KGFA Decoded METAR 2020/11/27 13:58 UTC NOAA

Malmstrom Air Force Base, MT, United States (KGFA) 47-30N 111-11W
Nov 27, 2020 - 08:58 AM EST / 2020.11.27 1358 UTC
Wind: from the SW (230 degrees) at 22 MPH (19 KT):0
Visibility: 10 mile(s):0
Sky conditions: clear
Temperature: 36.7 F (2.6 C)
Dew Point: 22.1 F (-5.5 C)
Relative Humidity: 55%
Pressure (altimeter): 30.06 in. Hg (1017 hPa)
ob: KGFA 271358Z AUTO 23019KT 10SM CLR 03/M05 A3006 RMK AO2 SLP208 T00261055
cycle: 14

Station Type Date Time Source
KGFA TAF 2020/11/25 19:28 UTC NOAA

TAF COR KGFA 251910Z 2519/2701 24020G25KT 9999 SCT140 530005 QNH2971INS
BECMG 2601/2602 25009KT 9999 SCT060 QNH2989INS
TEMPO 2608/2611 23012G18KT
BECMG 2611/2612 23015G20KT 9999 FEW130 530005 QNH2995INS TX08/2520Z TNM03/2603Z LAST NO
AMDS AFT 2519 NEXT 3011

Example: see airport list